sensor_id;sensor_type;location;lat;lon;timestamp;P1;durP1;ratioP1;P2;durP2;ratioP2
13927;SDS011;7036;50.834;4.718;2024-01-15T00:00:10;18.38;;;15.55;;
13927;SDS011;7036;50.834;4.718;2024-01-15T00:02:37;19.40;;;16.58;;
13927;SDS011;7036;50.834;4.718;2024-01-15T00:05:05;16.52;;;14.35;;
13927;SDS011;7036;50.834;4.718;2024-01-15T00:07:33;18.17;;;14.52;;
13927;SDS011;7036;50.834;4.718;2024-01-15T00:10:00;18.17;;;15.88;;
13927;SDS011;7036;50.834;4.718;2024-01-15T00:12:27;18.17;;;14.88;;
13927;SDS011;7036;50.834;4.718;2024-01-15T00:14:58;18.60;;;15.93;;
13927;SDS011;7036;50.834;4.718;2024-01-15T00:17:22;17.65;;;15.25;;
13927;SDS011;7036;50.834;4.718;2024-01-15T00:19:52;17.98;;;15.23;;
13927;SDS011;7036;50.834;4.718;2024-01-15T00:22:20;18.40;;;15.70;;
13927;SDS011;7036;50.834;4.718;2024-01-15T00:24:47;18.80;;;16.02;;
13927;SDS011;7036;50.834;4.718;2024-01-15T00:27:14;17.58;;;15.15;;
13927;SDS011;7036;50.834;4.718;2024-01-15T00:29:42;18.88;;;14.68;;
13927;SDS011;7036;50.834;4.718;2024-01-15T00:32:09;16.85;;;14.98;;
13927;SDS011;7036;50.834;4.718;2024-01-15T00:34:36;19.75;;;14.43;;
13927;SDS011;7036;50.834;4.718;2024-01-15T00:37:08;17.63;;;14.63;;
13927;SDS011;7036;50.834;4.718;2024-01-15T00:39:35;17.60;;;14.75;;
13927;SDS011;7036;50.834;4.718;2024-01-15T00:42:03;17.13;;;14.32;;
13927;SDS011;7036;50.834;4.718;2024-01-15T00:44:30;17.73;;;14.32;;
13927;SDS011;7036;50.834;4.718;2024-01-15T00:46:57;16.42;;;14.55;;
13927;SDS011;7036;50.834;4.718;2024-01-15T00:49:26;16.85;;;14.73;;
13927;SDS011;7036;50.834;4.718;2024-01-15T00:51:53;15.25;;;13.20;;
13927;SDS011;7036;50.834;4.718;2024-01-15T00:54:20;17.90;;;15.15;;
13927;SDS011;7036;50.834;4.718;2024-01-15T00:56:47;17.77;;;14.35;;
13927;SDS011;7036;50.834;4.718;2024-01-15T00:59:15;16.52;;;13.45;;
13927;SDS011;7036;50.834;4.718;2024-01-15T01:01:42;17.92;;;14.20;;
13927;SDS011;7036;50.834;4.718;2024-01-15T01:04:13;17.75;;;14.02;;
13927;SDS011;7036;50.834;4.718;2024-01-15T01:06:40;17.52;;;13.80;;
13927;SDS011;7036;50.834;4.718;2024-01-15T01:09:07;15.40;;;13.25;;
13927;SDS011;7036;50.834;4.718;2024-01-15T01:11:35;14.88;;;13.02;;
13927;SDS011;7036;50.834;4.718;2024-01-15T01:14:02;17.52;;;13.93;;
13927;SDS011;7036;50.834;4.718;2024-01-15T01:16:29;14.88;;;12.85;;
13927;SDS011;7036;50.834;4.718;2024-01-15T01:18:56;15.50;;;13.48;;
13927;SDS011;7036;50.834;4.718;2024-01-15T01:21:25;15.45;;;12.90;;
13927;SDS011;7036;50.834;4.718;2024-01-15T01:23:52;14.45;;;12.95;;
13927;SDS011;7036;50.834;4.718;2024-01-15T01:26:19;17.38;;;11.85;;
13927;SDS011;7036;50.834;4.718;2024-01-15T01:28:46;17.02;;;13.27;;
13927;SDS011;7036;50.834;4.718;2024-01-15T01:31:14;14.68;;;11.95;;
13927;SDS011;7036;50.834;4.718;2024-01-15T01:33:41;14.25;;;11.98;;
13927;SDS011;7036;50.834;4.718;2024-01-15T01:36:08;14.52;;;11.95;;
13927;SDS011;7036;50.834;4.718;2024-01-15T01:38:39;14.38;;;12.25;;
13927;SDS011;7036;50.834;4.718;2024-01-15T01:41:06;13.13;;;11.63;;
13927;SDS011;7036;50.834;4.718;2024-01-15T01:43:33;12.00;;;10.75;;
13927;SDS011;7036;50.834;4.718;2024-01-15T01:46:00;13.88;;;11.77;;
13927;SDS011;7036;50.834;4.718;2024-01-15T01:48:27;13.23;;;11.23;;
13927;SDS011;7036;50.834;4.718;2024-01-15T01:50:55;12.85;;;10.60;;
13927;SDS011;7036;50.834;4.718;2024-01-15T01:53:22;14.00;;;10.98;;
13927;SDS011;7036;50.834;4.718;2024-01-15T01:55:49;13.63;;;11.15;;
13927;SDS011;7036;50.834;4.718;2024-01-15T01:58:16;13.48;;;10.15;;
13927;SDS011;7036;50.834;4.718;2024-01-15T02:00:43;13.32;;;10.18;;
13927;SDS011;7036;50.834;4.718;2024-01-15T02:03:12;14.85;;;10.30;;
13927;SDS011;7036;50.834;4.718;2024-01-15T02:05:39;11.43;;;10.23;;
13927;SDS011;7036;50.834;4.718;2024-01-15T02:08:06;11.20;;;9.85;;
13927;SDS011;7036;50.834;4.718;2024-01-15T02:10:33;12.90;;;10.02;;
13927;SDS011;7036;50.834;4.718;2024-01-15T02:13:00;11.15;;;9.95;;
13927;SDS011;7036;50.834;4.718;2024-01-15T02:15:28;11.20;;;9.55;;
13927;SDS011;7036;50.834;4.718;2024-01-15T02:17:58;11.63;;;10.18;;
13927;SDS011;7036;50.834;4.718;2024-01-15T02:20:26;10.60;;;8.57;;
13927;SDS011;7036;50.834;4.718;2024-01-15T02:22:53;12.45;;;10.07;;
13927;SDS011;7036;50.834;4.718;2024-01-15T02:25:20;11.23;;;9.80;;
13927;SDS011;7036;50.834;4.718;2024-01-15T02:27:48;11.52;;;9.20;;
13927;SDS011;7036;50.834;4.718;2024-01-15T02:30:16;10.85;;;8.95;;
13927;SDS011;7036;50.834;4.718;2024-01-15T02:32:44;10.13;;;8.75;;
13927;SDS011;7036;50.834;4.718;2024-01-15T02:35:11;10.20;;;9.05;;
13927;SDS011;7036;50.834;4.718;2024-01-15T02:37:39;9.70;;;8.80;;
13927;SDS011;7036;50.834;4.718;2024-01-15T02:40:07;9.75;;;8.75;;
13927;SDS011;7036;50.834;4.718;2024-01-15T02:42:34;10.68;;;8.73;;
13927;SDS011;7036;50.834;4.718;2024-01-15T02:45:03;11.43;;;9.30;;
13927;SDS011;7036;50.834;4.718;2024-01-15T02:47:30;8.63;;;7.72;;
13927;SDS011;7036;50.834;4.718;2024-01-15T02:49:57;10.30;;;7.97;;
13927;SDS011;7036;50.834;4.718;2024-01-15T02:52:25;9.13;;;8.23;;
13927;SDS011;7036;50.834;4.718;2024-01-15T02:54:53;10.57;;;8.45;;
13927;SDS011;7036;50.834;4.718;2024-01-15T02:57:21;9.80;;;8.27;;
13927;SDS011;7036;50.834;4.718;2024-01-15T02:59:49;10.32;;;8.27;;
13927;SDS011;7036;50.834;4.718;2024-01-15T03:02:17;9.75;;;8.38;;
13927;SDS011;7036;50.834;4.718;2024-01-15T03:04:45;9.65;;;8.57;;
13927;SDS011;7036;50.834;4.718;2024-01-15T03:07:12;8.88;;;7.97;;
13927;SDS011;7036;50.834;4.718;2024-01-15T03:09:40;8.48;;;7.57;;
13927;SDS011;7036;50.834;4.718;2024-01-15T03:12:08;8.52;;;7.45;;
13927;SDS011;7036;50.834;4.718;2024-01-15T03:14:36;9.18;;;7.65;;
13927;SDS011;7036;50.834;4.718;2024-01-15T03:17:04;8.88;;;7.80;;
13927;SDS011;7036;50.834;4.718;2024-01-15T03:19:34;8.98;;;6.82;;
13927;SDS011;7036;50.834;4.718;2024-01-15T03:21:59;8.73;;;7.55;;
13927;SDS011;7036;50.834;4.718;2024-01-15T03:24:27;8.32;;;7.20;;
13927;SDS011;7036;50.834;4.718;2024-01-15T03:26:54;7.57;;;6.80;;
13927;SDS011;7036;50.834;4.718;2024-01-15T03:29:22;6.72;;;6.00;;
13927;SDS011;7036;50.834;4.718;2024-01-15T03:31:50;8.02;;;7.05;;
13927;SDS011;7036;50.834;4.718;2024-01-15T03:34:18;8.77;;;7.30;;
13927;SDS011;7036;50.834;4.718;2024-01-15T03:36:46;10.02;;;6.85;;
13927;SDS011;7036;50.834;4.718;2024-01-15T03:39:14;9.18;;;6.70;;
13927;SDS011;7036;50.834;4.718;2024-01-15T03:41:43;7.82;;;6.70;;
13927;SDS011;7036;50.834;4.718;2024-01-15T03:44:11;7.80;;;6.55;;
13927;SDS011;7036;50.834;4.718;2024-01-15T03:46:39;6.47;;;5.88;;
13927;SDS011;7036;50.834;4.718;2024-01-15T03:49:07;8.13;;;6.47;;
13927;SDS011;7036;50.834;4.718;2024-01-15T03:51:35;8.95;;;6.13;;
13927;SDS011;7036;50.834;4.718;2024-01-15T03:54:03;6.85;;;6.25;;
13927;SDS011;7036;50.834;4.718;2024-01-15T03:56:31;7.13;;;6.43;;
13927;SDS011;7036;50.834;4.718;2024-01-15T03:58:59;7.05;;;6.35;;
13927;SDS011;7036;50.834;4.718;2024-01-15T04:01:27;6.28;;;5.68;;
13927;SDS011;7036;50.834;4.718;2024-01-15T04:03:55;8.48;;;6.63;;
13927;SDS011;7036;50.834;4.718;2024-01-15T04:06:23;6.80;;;5.90;;
13927;SDS011;7036;50.834;4.718;2024-01-15T04:08:50;7.18;;;6.07;;
13927;SDS011;7036;50.834;4.718;2024-01-15T04:11:18;6.85;;;6.15;;
13927;SDS011;7036;50.834;4.718;2024-01-15T04:13:46;9.02;;;6.78;;
13927;SDS011;7036;50.834;4.718;2024-01-15T04:16:14;7.63;;;6.47;;
13927;SDS011;7036;50.834;4.718;2024-01-15T04:18:42;7.15;;;6.45;;
13927;SDS011;7036;50.834;4.718;2024-01-15T04:21:10;7.50;;;6.60;;
13927;SDS011;7036;50.834;4.718;2024-01-15T04:23:39;7.85;;;6.75;;
13927;SDS011;7036;50.834;4.718;2024-01-15T04:26:07;7.40;;;6.65;;
13927;SDS011;7036;50.834;4.718;2024-01-15T04:28:35;7.18;;;6.47;;
13927;SDS011;7036;50.834;4.718;2024-01-15T04:31:03;6.95;;;6.07;;
13927;SDS011;7036;50.834;4.718;2024-01-15T04:33:31;8.20;;;6.78;;
13927;SDS011;7036;50.834;4.718;2024-01-15T04:36:03;7.60;;;6.45;;
13927;SDS011;7036;50.834;4.718;2024-01-15T04:38:29;8.18;;;6.78;;
13927;SDS011;7036;50.834;4.718;2024-01-15T04:40:57;7.28;;;6.55;;
13927;SDS011;7036;50.834;4.718;2024-01-15T04:43:25;8.45;;;6.93;;
13927;SDS011;7036;50.834;4.718;2024-01-15T04:45:53;7.90;;;6.97;;
13927;SDS011;7036;50.834;4.718;2024-01-15T04:48:21;7.28;;;6.57;;
13927;SDS011;7036;50.834;4.718;2024-01-15T04:50:49;7.55;;;6.38;;
13927;SDS011;7036;50.834;4.718;2024-01-15T04:53:17;8.25;;;6.95;;
13927;SDS011;7036;50.834;4.718;2024-01-15T04:55:45;7.55;;;6.45;;
13927;SDS011;7036;50.834;4.718;2024-01-15T04:58:13;7.97;;;6.72;;
13927;SDS011;7036;50.834;4.718;2024-01-15T05:00:40;8.15;;;6.53;;
13927;SDS011;7036;50.834;4.718;2024-01-15T05:03:08;8.93;;;7.47;;
13927;SDS011;7036;50.834;4.718;2024-01-15T05:05:36;7.20;;;6.50;;
13927;SDS011;7036;50.834;4.718;2024-01-15T05:08:03;8.45;;;7.10;;
13927;SDS011;7036;50.834;4.718;2024-01-15T05:10:31;9.15;;;6.50;;
13927;SDS011;7036;50.834;4.718;2024-01-15T05:12:59;8.32;;;7.22;;
13927;SDS011;7036;50.834;4.718;2024-01-15T05:15:27;8.48;;;7.00;;
13927;SDS011;7036;50.834;4.718;2024-01-15T05:17:55;7.72;;;6.60;;
13927;SDS011;7036;50.834;4.718;2024-01-15T05:20:23;8.55;;;6.57;;
13927;SDS011;7036;50.834;4.718;2024-01-15T05:22:51;7.45;;;6.72;;
13927;SDS011;7036;50.834;4.718;2024-01-15T05:25:19;8.23;;;7.43;;
13927;SDS011;7036;50.834;4.718;2024-01-15T05:27:47;7.90;;;6.95;;
13927;SDS011;7036;50.834;4.718;2024-01-15T05:30:14;7.53;;;6.75;;
13927;SDS011;7036;50.834;4.718;2024-01-15T05:32:41;7.47;;;6.78;;
13927;SDS011;7036;50.834;4.718;2024-01-15T05:35:09;8.05;;;7.20;;
13927;SDS011;7036;50.834;4.718;2024-01-15T05:37:38;7.65;;;6.85;;
13927;SDS011;7036;50.834;4.718;2024-01-15T05:40:05;8.18;;;7.38;;
13927;SDS011;7036;50.834;4.718;2024-01-15T05:42:32;7.40;;;6.70;;
13927;SDS011;7036;50.834;4.718;2024-01-15T05:45:00;8.23;;;6.57;;
13927;SDS011;7036;50.834;4.718;2024-01-15T05:47:28;8.13;;;6.32;;
13927;SDS011;7036;50.834;4.718;2024-01-15T05:49:56;7.80;;;6.47;;
13927;SDS011;7036;50.834;4.718;2024-01-15T05:52:24;7.68;;;6.68;;
13927;SDS011;7036;50.834;4.718;2024-01-15T05:54:51;7.47;;;6.68;;
13927;SDS011;7036;50.834;4.718;2024-01-15T05:57:19;7.35;;;6.53;;
13927;SDS011;7036;50.834;4.718;2024-01-15T05:59:47;7.63;;;6.03;;
13927;SDS011;7036;50.834;4.718;2024-01-15T06:02:15;6.95;;;6.22;;
13927;SDS011;7036;50.834;4.718;2024-01-15T06:04:42;7.82;;;5.95;;
13927;SDS011;7036;50.834;4.718;2024-01-15T06:07:10;7.35;;;6.43;;
13927;SDS011;7036;50.834;4.718;2024-01-15T06:09:38;6.47;;;5.80;;
13927;SDS011;7036;50.834;4.718;2024-01-15T06:12:07;7.60;;;5.70;;
13927;SDS011;7036;50.834;4.718;2024-01-15T06:14:34;8.07;;;5.57;;
13927;SDS011;7036;50.834;4.718;2024-01-15T06:17:02;6.90;;;5.40;;
13927;SDS011;7036;50.834;4.718;2024-01-15T06:19:30;6.90;;;5.65;;
13927;SDS011;7036;50.834;4.718;2024-01-15T06:21:58;5.72;;;5.22;;
13927;SDS011;7036;50.834;4.718;2024-01-15T06:24:26;5.35;;;4.85;;
13927;SDS011;7036;50.834;4.718;2024-01-15T06:26:53;6.15;;;5.30;;
13927;SDS011;7036;50.834;4.718;2024-01-15T06:29:21;8.50;;;5.40;;
13927;SDS011;7036;50.834;4.718;2024-01-15T06:31:48;6.57;;;5.22;;
13927;SDS011;7036;50.834;4.718;2024-01-15T06:34:16;6.47;;;5.25;;
13927;SDS011;7036;50.834;4.718;2024-01-15T06:36:44;6.15;;;5.10;;
13927;SDS011;7036;50.834;4.718;2024-01-15T06:39:12;5.32;;;4.82;;
13927;SDS011;7036;50.834;4.718;2024-01-15T06:41:40;5.95;;;4.95;;
13927;SDS011;7036;50.834;4.718;2024-01-15T06:44:10;6.35;;;5.05;;
13927;SDS011;7036;50.834;4.718;2024-01-15T06:46:44;6.47;;;4.63;;
13927;SDS011;7036;50.834;4.718;2024-01-15T06:49:12;4.85;;;4.35;;
13927;SDS011;7036;50.834;4.718;2024-01-15T06:51:40;5.20;;;4.70;;
13927;SDS011;7036;50.834;4.718;2024-01-15T06:54:08;4.72;;;4.22;;
13927;SDS011;7036;50.834;4.718;2024-01-15T06:56:36;5.95;;;4.65;;
13927;SDS011;7036;50.834;4.718;2024-01-15T06:59:03;5.47;;;4.22;;
13927;SDS011;7036;50.834;4.718;2024-01-15T07:01:31;5.10;;;4.57;;
13927;SDS011;7036;50.834;4.718;2024-01-15T07:03:59;4.60;;;4.07;;
13927;SDS011;7036;50.834;4.718;2024-01-15T07:06:26;4.68;;;4.20;;
13927;SDS011;7036;50.834;4.718;2024-01-15T07:08:54;4.40;;;3.83;;
13927;SDS011;7036;50.834;4.718;2024-01-15T07:11:22;5.78;;;3.90;;
13927;SDS011;7036;50.834;4.718;2024-01-15T07:13:50;4.82;;;4.22;;
13927;SDS011;7036;50.834;4.718;2024-01-15T07:16:19;4.55;;;3.78;;
13927;SDS011;7036;50.834;4.718;2024-01-15T07:18:47;4.40;;;4.00;;
13927;SDS011;7036;50.834;4.718;2024-01-15T07:21:15;4.50;;;3.83;;
13927;SDS011;7036;50.834;4.718;2024-01-15T07:23:42;5.07;;;4.10;;
13927;SDS011;7036;50.834;4.718;2024-01-15T07:26:09;6.05;;;3.35;;
13927;SDS011;7036;50.834;4.718;2024-01-15T07:28:37;3.95;;;3.55;;
13927;SDS011;7036;50.834;4.718;2024-01-15T07:31:05;3.95;;;3.33;;
13927;SDS011;7036;50.834;4.718;2024-01-15T07:33:33;4.53;;;3.38;;
13927;SDS011;7036;50.834;4.718;2024-01-15T07:36:01;5.10;;;3.15;;
13927;SDS011;7036;50.834;4.718;2024-01-15T07:38:28;3.67;;;3.38;;
13927;SDS011;7036;50.834;4.718;2024-01-15T07:40:56;5.53;;;3.33;;
13927;SDS011;7036;50.834;4.718;2024-01-15T07:43:24;3.20;;;2.83;;
13927;SDS011;7036;50.834;4.718;2024-01-15T07:45:52;3.63;;;3.03;;
13927;SDS011;7036;50.834;4.718;2024-01-15T07:48:21;4.53;;;3.03;;
13927;SDS011;7036;50.834;4.718;2024-01-15T07:50:49;4.95;;;3.00;;
13927;SDS011;7036;50.834;4.718;2024-01-15T07:53:18;3.67;;;2.60;;
13927;SDS011;7036;50.834;4.718;2024-01-15T07:55:46;4.32;;;2.67;;
13927;SDS011;7036;50.834;4.718;2024-01-15T07:58:13;5.68;;;2.70;;
13927;SDS011;7036;50.834;4.718;2024-01-15T08:00:42;3.63;;;2.85;;
13927;SDS011;7036;50.834;4.718;2024-01-15T08:03:10;5.20;;;2.72;;
13927;SDS011;7036;50.834;4.718;2024-01-15T08:05:37;4.10;;;2.63;;
13927;SDS011;7036;50.834;4.718;2024-01-15T08:08:04;5.55;;;2.50;;
13927;SDS011;7036;50.834;4.718;2024-01-15T08:10:32;6.47;;;2.70;;
13927;SDS011;7036;50.834;4.718;2024-01-15T08:13:00;2.97;;;2.58;;
13927;SDS011;7036;50.834;4.718;2024-01-15T08:15:28;6.10;;;2.72;;
13927;SDS011;7036;50.834;4.718;2024-01-15T08:17:56;3.88;;;2.88;;
13927;SDS011;7036;50.834;4.718;2024-01-15T08:20:24;5.68;;;2.30;;
13927;SDS011;7036;50.834;4.718;2024-01-15T08:22:52;4.45;;;2.53;;
13927;SDS011;7036;50.834;4.718;2024-01-15T08:25:20;4.47;;;2.08;;
13927;SDS011;7036;50.834;4.718;2024-01-15T08:27:47;2.95;;;2.28;;
13927;SDS011;7036;50.834;4.718;2024-01-15T08:30:16;4.03;;;2.42;;
13927;SDS011;7036;50.834;4.718;2024-01-15T08:32:44;9.68;;;2.50;;
13927;SDS011;7036;50.834;4.718;2024-01-15T08:35:12;3.33;;;2.50;;
13927;SDS011;7036;50.834;4.718;2024-01-15T08:37:40;2.30;;;1.90;;
13927;SDS011;7036;50.834;4.718;2024-01-15T08:40:08;3.33;;;2.20;;
13927;SDS011;7036;50.834;4.718;2024-01-15T08:42:35;8.82;;;2.55;;
13927;SDS011;7036;50.834;4.718;2024-01-15T08:45:03;7.38;;;2.75;;
13927;SDS011;7036;50.834;4.718;2024-01-15T08:47:30;4.03;;;2.33;;
13927;SDS011;7036;50.834;4.718;2024-01-15T08:49:58;5.50;;;1.90;;
13927;SDS011;7036;50.834;4.718;2024-01-15T08:52:26;3.22;;;1.98;;
13927;SDS011;7036;50.834;4.718;2024-01-15T08:54:55;3.95;;;2.20;;
13927;SDS011;7036;50.834;4.718;2024-01-15T08:57:21;2.75;;;2.17;;
13927;SDS011;7036;50.834;4.718;2024-01-15T08:59:50;5.57;;;2.10;;
13927;SDS011;7036;50.834;4.718;2024-01-15T09:02:18;5.18;;;2.25;;
13927;SDS011;7036;50.834;4.718;2024-01-15T09:04:45;3.45;;;2.10;;
13927;SDS011;7036;50.834;4.718;2024-01-15T09:07:13;4.82;;;2.20;;
13927;SDS011;7036;50.834;4.718;2024-01-15T09:09:41;6.20;;;2.50;;
13927;SDS011;7036;50.834;4.718;2024-01-15T09:12:09;2.92;;;1.88;;
13927;SDS011;7036;50.834;4.718;2024-01-15T09:14:37;3.95;;;1.90;;
13927;SDS011;7036;50.834;4.718;2024-01-15T09:17:05;5.85;;;2.45;;
13927;SDS011;7036;50.834;4.718;2024-01-15T09:19:33;6.47;;;2.10;;
13927;SDS011;7036;50.834;4.718;2024-01-15T09:22:01;3.15;;;1.92;;
13927;SDS011;7036;50.834;4.718;2024-01-15T09:24:28;3.08;;;2.00;;
13927;SDS011;7036;50.834;4.718;2024-01-15T09:26:56;5.90;;;2.30;;
13927;SDS011;7036;50.834;4.718;2024-01-15T09:29:23;3.63;;;1.92;;
13927;SDS011;7036;50.834;4.718;2024-01-15T09:31:51;3.25;;;2.58;;
13927;SDS011;7036;50.834;4.718;2024-01-15T09:34:19;7.55;;;2.22;;
13927;SDS011;7036;50.834;4.718;2024-01-15T09:36:47;3.65;;;2.15;;
13927;SDS011;7036;50.834;4.718;2024-01-15T09:39:15;7.40;;;2.38;;
13927;SDS011;7036;50.834;4.718;2024-01-15T09:41:43;3.30;;;2.20;;
13927;SDS011;7036;50.834;4.718;2024-01-15T09:44:11;3.80;;;1.92;;
13927;SDS011;7036;50.834;4.718;2024-01-15T09:46:39;3.83;;;1.98;;
13927;SDS011;7036;50.834;4.718;2024-01-15T09:49:06;3.70;;;1.85;;
13927;SDS011;7036;50.834;4.718;2024-01-15T09:51:33;4.20;;;1.83;;
13927;SDS011;7036;50.834;4.718;2024-01-15T09:54:01;4.00;;;2.28;;
13927;SDS011;7036;50.834;4.718;2024-01-15T09:56:30;6.90;;;1.75;;
13927;SDS011;7036;50.834;4.718;2024-01-15T09:58:57;3.35;;;1.67;;
13927;SDS011;7036;50.834;4.718;2024-01-15T10:01:25;3.20;;;2.13;;
13927;SDS011;7036;50.834;4.718;2024-01-15T10:03:54;3.65;;;1.85;;
13927;SDS011;7036;50.834;4.718;2024-01-15T10:06:21;2.03;;;1.50;;
13927;SDS011;7036;50.834;4.718;2024-01-15T10:08:49;2.15;;;1.63;;
13927;SDS011;7036;50.834;4.718;2024-01-15T10:11:17;3.40;;;1.70;;
13927;SDS011;7036;50.834;4.718;2024-01-15T10:13:45;4.00;;;2.00;;
13927;SDS011;7036;50.834;4.718;2024-01-15T10:16:13;3.75;;;1.88;;
13927;SDS011;7036;50.834;4.718;2024-01-15T10:18:41;3.80;;;1.95;;
13927;SDS011;7036;50.834;4.718;2024-01-15T10:21:09;2.67;;;1.83;;
13927;SDS011;7036;50.834;4.718;2024-01-15T10:23:37;3.10;;;1.70;;
13927;SDS011;7036;50.834;4.718;2024-01-15T10:26:05;4.07;;;1.80;;
13927;SDS011;7036;50.834;4.718;2024-01-15T10:28:34;4.07;;;1.88;;
13927;SDS011;7036;50.834;4.718;2024-01-15T10:31:02;2.83;;;1.73;;
13927;SDS011;7036;50.834;4.718;2024-01-15T10:33:30;2.78;;;1.42;;
13927;SDS011;7036;50.834;4.718;2024-01-15T10:35:58;2.97;;;1.80;;
13927;SDS011;7036;50.834;4.718;2024-01-15T10:38:25;5.07;;;1.63;;
13927;SDS011;7036;50.834;4.718;2024-01-15T10:40:53;4.38;;;2.05;;
13927;SDS011;7036;50.834;4.718;2024-01-15T10:43:21;2.47;;;1.65;;
13927;SDS011;7036;50.834;4.718;2024-01-15T10:45:50;3.28;;;1.73;;
13927;SDS011;7036;50.834;4.718;2024-01-15T10:48:17;3.78;;;2.00;;
13927;SDS011;7036;50.834;4.718;2024-01-15T10:50:44;2.38;;;1.35;;
13927;SDS011;7036;50.834;4.718;2024-01-15T10:53:14;2.42;;;1.73;;
13927;SDS011;7036;50.834;4.718;2024-01-15T10:55:39;5.70;;;1.90;;
13927;SDS011;7036;50.834;4.718;2024-01-15T10:58:07;3.88;;;1.85;;
13927;SDS011;7036;50.834;4.718;2024-01-15T11:00:35;3.97;;;1.83;;
13927;SDS011;7036;50.834;4.718;2024-01-15T11:03:03;2.88;;;1.92;;
13927;SDS011;7036;50.834;4.718;2024-01-15T11:05:41;3.55;;;2.05;;
13927;SDS011;7036;50.834;4.718;2024-01-15T11:08:05;4.00;;;1.50;;
13927;SDS011;7036;50.834;4.718;2024-01-15T11:10:46;2.00;;;1.60;;
13927;SDS011;7036;50.834;4.718;2024-01-15T11:13:19;2.83;;;1.43;;
13927;SDS011;7036;50.834;4.718;2024-01-15T11:15:55;2.30;;;1.73;;
13927;SDS011;7036;50.834;4.718;2024-01-15T11:18:23;2.50;;;1.60;;
13927;SDS011;7036;50.834;4.718;2024-01-15T11:23:47;4.53;;;1.80;;
13927;SDS011;7036;50.834;4.718;2024-01-15T11:26:29;3.20;;;1.83;;
13927;SDS011;7036;50.834;4.718;2024-01-15T11:29:05;3.27;;;1.50;;
13927;SDS011;7036;50.834;4.718;2024-01-15T11:34:08;7.37;;;2.00;;
13927;SDS011;7036;50.834;4.718;2024-01-15T11:41:57;2.60;;;1.67;;
13927;SDS011;7036;50.834;4.718;2024-01-15T11:44:27;2.63;;;1.43;;
13927;SDS011;7036;50.834;4.718;2024-01-15T11:47:00;3.47;;;1.50;;
13927;SDS011;7036;50.834;4.718;2024-01-15T11:52:12;2.20;;;1.30;;
13927;SDS011;7036;50.834;4.718;2024-01-15T11:54:40;4.22;;;1.58;;
13927;SDS011;7036;50.834;4.718;2024-01-15T11:57:09;2.72;;;1.67;;
13927;SDS011;7036;50.834;4.718;2024-01-15T11:59:35;2.38;;;1.48;;
13927;SDS011;7036;50.834;4.718;2024-01-15T12:02:03;4.07;;;1.60;;
13927;SDS011;7036;50.834;4.718;2024-01-15T12:04:31;4.30;;;1.50;;
13927;SDS011;7036;50.834;4.718;2024-01-15T12:07:00;3.78;;;1.73;;
13927;SDS011;7036;50.834;4.718;2024-01-15T12:09:28;3.40;;;1.70;;
13927;SDS011;7036;50.834;4.718;2024-01-15T12:11:57;2.38;;;1.10;;
13927;SDS011;7036;50.834;4.718;2024-01-15T12:14:23;3.47;;;1.52;;
13927;SDS011;7036;50.834;4.718;2024-01-15T12:16:51;2.83;;;1.40;;
13927;SDS011;7036;50.834;4.718;2024-01-15T12:19:19;3.22;;;1.70;;
13927;SDS011;7036;50.834;4.718;2024-01-15T12:21:47;2.85;;;1.42;;
13927;SDS011;7036;50.834;4.718;2024-01-15T12:24:16;4.03;;;1.58;;
13927;SDS011;7036;50.834;4.718;2024-01-15T12:26:42;1.80;;;1.30;;
13927;SDS011;7036;50.834;4.718;2024-01-15T12:29:10;3.20;;;1.85;;
13927;SDS011;7036;50.834;4.718;2024-01-15T12:31:37;2.78;;;1.40;;
13927;SDS011;7036;50.834;4.718;2024-01-15T12:34:04;3.95;;;1.60;;
13927;SDS011;7036;50.834;4.718;2024-01-15T12:36:32;2.97;;;1.70;;
13927;SDS011;7036;50.834;4.718;2024-01-15T12:38:59;3.00;;;1.40;;
13927;SDS011;7036;50.834;4.718;2024-01-15T12:41:27;5.22;;;1.67;;
13927;SDS011;7036;50.834;4.718;2024-01-15T12:43:54;10.25;;;2.10;;
13927;SDS011;7036;50.834;4.718;2024-01-15T12:46:23;4.55;;;1.70;;
13927;SDS011;7036;50.834;4.718;2024-01-15T12:48:50;3.97;;;1.70;;
13927;SDS011;7036;50.834;4.718;2024-01-15T12:51:17;4.32;;;1.77;;
13927;SDS011;7036;50.834;4.718;2024-01-15T12:53:45;6.72;;;1.70;;
13927;SDS011;7036;50.834;4.718;2024-01-15T12:56:13;3.70;;;1.40;;
13927;SDS011;7036;50.834;4.718;2024-01-15T12:58:41;2.63;;;1.55;;
13927;SDS011;7036;50.834;4.718;2024-01-15T13:01:09;2.42;;;1.33;;
13927;SDS011;7036;50.834;4.718;2024-01-15T13:03:37;7.50;;;1.77;;
13927;SDS011;7036;50.834;4.718;2024-01-15T13:06:05;8.20;;;2.08;;
13927;SDS011;7036;50.834;4.718;2024-01-15T13:08:32;8.27;;;2.00;;
13927;SDS011;7036;50.834;4.718;2024-01-15T13:11:00;6.50;;;1.70;;
13927;SDS011;7036;50.834;4.718;2024-01-15T13:13:28;3.63;;;1.52;;
13927;SDS011;7036;50.834;4.718;2024-01-15T13:15:55;3.70;;;1.60;;
13927;SDS011;7036;50.834;4.718;2024-01-15T13:18:23;5.38;;;1.88;;
13927;SDS011;7036;50.834;4.718;2024-01-15T13:20:51;5.13;;;1.45;;
13927;SDS011;7036;50.834;4.718;2024-01-15T13:23:19;4.30;;;1.65;;
13927;SDS011;7036;50.834;4.718;2024-01-15T13:25:47;7.63;;;1.50;;
13927;SDS011;7036;50.834;4.718;2024-01-15T13:28:15;3.05;;;1.42;;
13927;SDS011;7036;50.834;4.718;2024-01-15T13:30:43;2.50;;;1.40;;
13927;SDS011;7036;50.834;4.718;2024-01-15T13:33:11;4.88;;;1.33;;
13927;SDS011;7036;50.834;4.718;2024-01-15T13:35:38;2.20;;;1.60;;
13927;SDS011;7036;50.834;4.718;2024-01-15T13:38:05;3.08;;;1.65;;
13927;SDS011;7036;50.834;4.718;2024-01-15T13:40:34;6.80;;;1.35;;
13927;SDS011;7036;50.834;4.718;2024-01-15T13:43:00;6.47;;;1.80;;
13927;SDS011;7036;50.834;4.718;2024-01-15T13:45:28;5.22;;;1.45;;
13927;SDS011;7036;50.834;4.718;2024-01-15T13:47:56;4.28;;;1.45;;
13927;SDS011;7036;50.834;4.718;2024-01-15T13:50:24;5.00;;;1.40;;
13927;SDS011;7036;50.834;4.718;2024-01-15T13:52:52;3.63;;;1.70;;
13927;SDS011;7036;50.834;4.718;2024-01-15T13:55:20;2.50;;;1.33;;
13927;SDS011;7036;50.834;4.718;2024-01-15T13:57:48;2.58;;;1.10;;
13927;SDS011;7036;50.834;4.718;2024-01-15T14:00:15;2.33;;;1.30;;
13927;SDS011;7036;50.834;4.718;2024-01-15T14:02:43;4.70;;;1.30;;
13927;SDS011;7036;50.834;4.718;2024-01-15T14:05:11;3.95;;;1.40;;
13927;SDS011;7036;50.834;4.718;2024-01-15T14:07:39;7.70;;;1.20;;
13927;SDS011;7036;50.834;4.718;2024-01-15T14:10:07;3.25;;;1.13;;
13927;SDS011;7036;50.834;4.718;2024-01-15T14:12:37;4.55;;;1.40;;
13927;SDS011;7036;50.834;4.718;2024-01-15T14:15:04;4.33;;;1.63;;
13927;SDS011;7036;50.834;4.718;2024-01-15T14:17:31;4.22;;;1.40;;
13927;SDS011;7036;50.834;4.718;2024-01-15T14:19:59;5.03;;;1.42;;
13927;SDS011;7036;50.834;4.718;2024-01-15T14:22:28;2.97;;;1.50;;
13927;SDS011;7036;50.834;4.718;2024-01-15T14:24:56;5.07;;;1.10;;
13927;SDS011;7036;50.834;4.718;2024-01-15T14:27:22;1.37;;;1.07;;
13927;SDS011;7036;50.834;4.718;2024-01-15T14:29:50;3.33;;;1.58;;
13927;SDS011;7036;50.834;4.718;2024-01-15T14:32:17;6.20;;;1.48;;
13927;SDS011;7036;50.834;4.718;2024-01-15T14:34:45;3.22;;;1.33;;
13927;SDS011;7036;50.834;4.718;2024-01-15T14:37:13;3.58;;;1.20;;
13927;SDS011;7036;50.834;4.718;2024-01-15T14:39:40;4.70;;;2.10;;
13927;SDS011;7036;50.834;4.718;2024-01-15T14:42:07;3.90;;;1.67;;
13927;SDS011;7036;50.834;4.718;2024-01-15T14:44:35;1.92;;;1.00;;
13927;SDS011;7036;50.834;4.718;2024-01-15T14:47:03;6.90;;;1.48;;
13927;SDS011;7036;50.834;4.718;2024-01-15T14:49:31;2.60;;;1.35;;
13927;SDS011;7036;50.834;4.718;2024-01-15T14:51:59;2.78;;;1.30;;
13927;SDS011;7036;50.834;4.718;2024-01-15T14:54:27;3.97;;;1.60;;
13927;SDS011;7036;50.834;4.718;2024-01-15T14:56:55;1.40;;;1.00;;
13927;SDS011;7036;50.834;4.718;2024-01-15T14:59:23;2.97;;;1.40;;
13927;SDS011;7036;50.834;4.718;2024-01-15T15:01:51;3.83;;;1.52;;
13927;SDS011;7036;50.834;4.718;2024-01-15T15:04:19;6.63;;;1.60;;
13927;SDS011;7036;50.834;4.718;2024-01-15T15:06:47;2.38;;;1.00;;
13927;SDS011;7036;50.834;4.718;2024-01-15T15:09:15;2.15;;;1.27;;
13927;SDS011;7036;50.834;4.718;2024-01-15T15:11:43;2.53;;;1.17;;
13927;SDS011;7036;50.834;4.718;2024-01-15T15:14:11;1.58;;;1.05;;